Nearby METAR Reports

 

KCMH - Columbus, Ohio, USA
Distance from station: SW 5mi, 8km
Updated: Fri, 20-Jul-2018 11:51am EDT
Light rain, Overcast
Light rain, Overcast
 Wind from SSE
Wind: SSE 12 mph , 19 km/h
Temperature: 72°F , 22°C
Dew Point: 70°F , 21°C
Humidity: 94%
Barometer: 29.94 inHg , 1013.9 hPa
Summary: Light rain
Clouds: Overcast
Visibility: 10 miles , 16 km
Cloud details: Partly cloudy 1000 ft
Overcast 11000 ft
2018/07/20 15:51 KCMH 201551Z 16010KT 10SM -RA SCT010 OVC110 22/21 A2994 RMK AO2 SLP134 P0000 T02220206
KOSU - Columbus/St Univ, Ohio, USA
Distance from station: W 14mi, 23km
Updated: Fri, 20-Jul-2018 11:53am EDT
Light rain, Overcast
Light rain, Overcast
 Wind from SSW
Wind: SSW 10 mph , 17 km/h
Temperature: 72°F , 22°C
Dew Point: 70°F , 21°C
Humidity: 94%
Barometer: 29.96 inHg , 1014.6 hPa
Summary: Light rain
Clouds: Overcast
Visibility: 10 miles , 16 km
Cloud details: Overcast 11000 ft
2018/07/20 15:53 KOSU 201553Z 20009KT 10SM -RA OVC110 22/21 A2996 RMK AO2 RAE13B49 SLP138 P0000 T02170206
 
KLCK - Rickenbacker Ang, Ohio, USA
Distance from station: SSW 17mi, 27km
Updated: Fri, 20-Jul-2018 11:55am EDT
Light rain, Overcast
Light rain, Overcast
 Wind from S
Wind: S 20 mph , 31 km/h, Gust: 25 mph , 41 km/h
Barometer: 29.96 inHg , 1014.6 hPa
Summary: Light rain
Clouds: Overcast
Visibility: 10 miles , 16 km
Cloud details: Mostly cloudy 1100 ft
Mostly cloudy 5500 ft
Overcast 7000 ft
2018/07/20 15:55 KLCK 201555Z AUTO 19017G22KT 10SM -RA BKN011 BKN055 OVC070 A2996 RMK AO2
KVTA - Newark, Ohio, USA
Distance from station: E 19mi, 30km
Updated: Fri, 20-Jul-2018 11:54am EDT
Rain, Mist, Overcast
Rain, Mist, Overcast
 Wind from SSE
Wind: SSE 8 mph , 13 km/h
Temperature: 72°F , 22°C
Dew Point: 68°F , 20°C
Humidity: 88%
Barometer: 29.95 inHg , 1014.2 hPa
Summary: Rain, Mist
Clouds: Overcast
Visibility: 4 miles , 6 km
Cloud details: Few Clouds 1800 ft
Mostly cloudy 5000 ft
Overcast 7500 ft
2018/07/20 15:54 KVTA 201554Z AUTO 15007KT 4SM RA BR FEW018 BKN050 OVC075 22/20 A2995 RMK AO2 RAE1459B25 SLP137 P0007 T02170200
 
KTZR - Columbus/Bolton, Ohio, USA
Distance from station: WSW 20mi, 31km
Updated: Fri, 20-Jul-2018 11:50am EDT
Light rain, Overcast
Light rain, Overcast
 Wind from S
Wind: S 12 mph , 19 km/h, Gust: 21 mph , 33 km/h
Temperature: 70°F , 21°C
Dew Point: 68°F , 20°C
Humidity: 94%
Barometer: 29.96 inHg , 1014.6 hPa
Summary: Light rain
Clouds: Overcast
Visibility: 7 miles , 11 km
Cloud details: Mostly cloudy 800 ft
Mostly cloudy 7000 ft
Overcast 11000 ft
2018/07/20 15:50 KTZR 201550Z 18010G18KT 7SM -RA BKN008 BKN070 OVC110 21/20 A2996
KLHQ - Lancaster, Ohio, USA
Distance from station: SSE 22mi, 36km
Updated: Fri, 20-Jul-2018 11:53am EDT
Overcast
Overcast
 Wind from SSW
Wind: SSW 6 mph , 9 km/h
Temperature: 72°F , 22°C
Dew Point: 70°F , 21°C
Humidity: 94%
Barometer: 29.98 inHg , 1015.2 hPa
Clouds: Overcast
Visibility: 10 miles , 16 km
Cloud details: Few Clouds 1400 ft
Mostly cloudy 8000 ft
Overcast 11000 ft
2018/07/20 15:53 KLHQ 201553Z AUTO 20005KT 10SM FEW014 BKN080 OVC110 22/21 A2998 RMK AO2 RAE47 SLP147 P0000 T02220211
 
KDLZ - Delaware, Ohio, USA
Distance from station: NW 23mi, 36km
Updated: Fri, 20-Jul-2018 11:56am EDT
Mostly cloudy
Mostly cloudy
 Wind from S
Wind: S 7 mph , 11 km/h
Temperature: 70°F , 21°C
Dew Point: 68°F , 20°C
Humidity: 94%
Barometer: 29.95 inHg , 1014.2 hPa
Clouds: Mostly cloudy
Visibility: 10 miles , 16 km
Cloud details: Mostly cloudy 11000 ft
2018/07/20 15:56 KDLZ 201556Z AUTO 17006KT 10SM BKN110 21/20 A2995 RMK AO2 P0001
K4I3 - Mt Vernon/Knox, Ohio, USA
Distance from station: NE 25mi, 40km
Updated: Fri, 20-Jul-2018 11:45am EDT
Light rain, Partly cloudy
Light rain, Partly cloudy
 Wind from SSE
Wind: SSE 8 mph , 13 km/h
Temperature: 72°F , 22°C
Dew Point: 70°F , 21°C
Humidity: 94%
Barometer: 29.97 inHg , 1014.9 hPa
Summary: Light rain
Clouds: Partly cloudy
Visibility: 10 miles , 16 km
Cloud details: Partly cloudy 700 ft
2018/07/20 15:45 K4I3 201545Z AUTO 16007KT 10SM -RA SCT007 22/21 A2997 RMK AO2 LTG DSNT NE
 
KMRT - Marysville, Ohio, USA
Distance from station: WNW 30mi, 49km
Updated: Fri, 20-Jul-2018 11:55am EDT
Mostly cloudy
Mostly cloudy
 Wind from S
Wind: S 12 mph , 19 km/h, Gust: 16 mph , 26 km/h
Temperature: 70°F , 21°C
Dew Point: 66°F , 19°C
Humidity: 88%
Barometer: 29.94 inHg , 1013.9 hPa
Clouds: Mostly cloudy
Visibility: 10 miles , 16 km
Cloud details: Partly cloudy 900 ft
Partly cloudy 1600 ft
Mostly cloudy 7000 ft
2018/07/20 15:55 KMRT 201555Z AUTO 19010G14KT 10SM SCT009 SCT016 BKN070 21/19 A2994 RMK AO2 P0005 T02080194
KMNN - Marion, Ohio, USA
Distance from station: NNW 41mi, 67km
Updated: Fri, 20-Jul-2018 11:53am EDT
Light rain, Mist, Overcast
Light rain, Mist, Overcast
 Wind from S
Wind: S 6 mph , 9 km/h
Temperature: 70°F , 21°C
Dew Point: 68°F , 20°C
Humidity: 94%
Barometer: 29.93 inHg , 1013.5 hPa
Summary: Light rain, Mist
Clouds: Overcast
Visibility: 4 miles , 6 km
Cloud details: Few Clouds 1600 ft
Overcast 10000 ft
2018/07/20 15:53 KMNN 201553Z AUTO 17005KT 4SM -RA BR FEW016 OVC100 21/20 A2993 RMK AO2 LTG DSNT NE SLP132 P0010 T02110200 $
 
KZZV - Zanesville, Ohio, USA
Distance from station: E 49mi, 79km
Updated: Fri, 20-Jul-2018 11:53am EDT
Rain, Mist, Overcast
Rain, Mist, Overcast
 Wind from SSW
Wind: SSW 7 mph , 11 km/h
Temperature: 70°F , 21°C
Dew Point: 64°F , 18°C
Humidity: 83%
Barometer: 29.99 inHg , 1015.6 hPa
Summary: Rain, Mist
Clouds: Overcast
Visibility: 3 miles , 5 km
Cloud details: Few Clouds 6000 ft
Few Clouds 7000 ft
Overcast 9500 ft
2018/07/20 15:53 KZZV 201553Z AUTO 21006KT 3SM RA BR FEW060 FEW070 OVC095 21/18 A2999 RMK AO2 PK WND 21026/1455 RAB1457 SLP150 P0013 T02060183